Time;durP1;ratioP1;P1;durP2;ratioP2;P2;SDS_P1;SDS_P2;PMS_P1;PMS_P2;Temp;Humidity;BMP_temperature;BMP_pressure;BME280_temperature;BME280_humidity;BME280_pressure;Samples;Min_cycle;Max_cycle;Signal;HPM_P1;HPM_P2
2024/01/15 00:00:39;;;;;;;0.00;0.00;;;;;;;3.40;66.25;99882.81;4942130;28;20026;-77
2024/01/15 00:03:04;;;;;;;0.00;0.00;;;;;;;3.34;66.36;99872.09;4969879;28;20077;-77
2024/01/15 00:05:30;;;;;;;0.00;0.00;;;;;;;3.45;66.41;99884.81;4961433;28;20433;-76
2024/01/15 00:07:55;;;;;;;0.00;0.00;;;;;;;3.45;66.16;99882.09;4966058;28;20037;-77
2024/01/15 00:10:21;;;;;;;0.00;0.00;;;;;;;3.50;66.15;99893.03;4963731;28;20035;-77
2024/01/15 00:12:46;;;;;;;0.00;0.00;;;;;;;3.41;65.60;99881.72;4940680;28;20023;-77
2024/01/15 00:15:12;;;;;;;0.00;0.00;;;;;;;3.30;65.57;99859.03;4959429;28;20098;-77
2024/01/15 00:17:41;;;;;;;0.00;0.00;;;;;;;3.43;65.74;99884.19;4964937;28;20480;-75
2024/01/15 00:20:07;;;;;;;0.00;0.00;;;;;;;3.31;64.95;99863.41;4939485;28;20026;-77
2024/01/15 00:22:32;;;;;;;0.10;0.10;;;;;;;3.40;64.95;99881.97;4969808;28;20023;-76
2024/01/15 00:24:58;;;;;;;0.00;0.00;;;;;;;3.32;64.57;99869.63;4956834;28;20550;-79
2024/01/15 00:27:24;;;;;;;0.00;0.00;;;;;;;3.39;65.23;99883.00;4961865;28;20481;-79
2024/01/15 00:29:51;;;;;;;0.05;0.05;;;;;;;3.28;65.29;99858.44;4951235;28;20485;-79
2024/01/15 00:32:17;;;;;;;0.00;0.00;;;;;;;3.23;64.51;99850.22;4930251;28;20031;-78
2024/01/15 00:34:42;;;;;;;0.00;0.00;;;;;;;3.30;64.26;99859.03;4962765;28;20026;-78
2024/01/15 00:37:08;;;;;;;0.00;0.00;;;;;;;3.36;64.77;99864.56;4975304;28;20030;-78
2024/01/15 00:39:33;;;;;;;0.00;0.00;;;;;;;3.20;64.36;99833.63;4957225;28;20388;-78
2024/01/15 00:42:01;;;;;;;0.00;0.00;;;;;;;3.37;64.56;99855.41;4971692;28;20409;-79
2024/01/15 00:44:26;;;;;;;0.00;0.00;;;;;;;3.28;64.69;99847.63;4954893;28;20030;-77
2024/01/15 00:46:52;;;;;;;0.05;0.05;;;;;;;3.32;64.97;99854.22;4977150;28;20070;-79
2024/01/15 00:49:17;;;;;;;0.00;0.00;;;;;;;3.29;64.50;99840.34;4954467;28;20033;-78
2024/01/15 00:51:43;;;;;;;0.00;0.00;;;;;;;3.09;64.82;99811.75;4933566;28;20054;-79
2024/01/15 00:54:08;;;;;;;0.00;0.00;;;;;;;3.30;65.08;99850.94;4959003;28;20044;-78
2024/01/15 00:56:34;;;;;;;0.00;0.00;;;;;;;3.27;65.26;99846.00;4949407;28;20055;-78
2024/01/15 00:59:00;;;;;;;0.00;0.00;;;;;;;3.31;65.02;99852.59;4989989;28;20049;-78
2024/01/15 01:01:25;;;;;;;0.00;0.00;;;;;;;3.28;65.07;99850.31;4979259;28;20053;-77
2024/01/15 01:03:51;;;;;;;0.00;0.00;;;;;;;3.29;64.60;99851.97;4960837;28;20520;-77
2024/01/15 01:06:16;;;;;;;0.10;0.10;;;;;;;3.22;64.54;99832.34;4961742;28;20027;-78
2024/01/15 01:08:42;;;;;;;0.00;0.00;;;;;;;3.27;64.97;99840.59;4954727;28;20381;-78
2024/01/15 01:11:07;;;;;;;0.00;0.00;;;;;;;3.24;65.39;99835.66;4942308;28;20493;-77
2024/01/15 01:13:33;;;;;;;0.00;0.00;;;;;;;3.21;65.73;99825.28;4951928;28;20039;-79
2024/01/15 01:15:58;;;;;;;0.00;0.00;;;;;;;3.26;64.86;99833.53;4966037;28;20029;-77
2024/01/15 01:18:24;;;;;;;0.00;0.00;;;;;;;3.26;65.90;99835.41;4963232;28;20073;-79
2024/01/15 01:20:49;;;;;;;0.00;0.00;;;;;;;3.27;65.54;99828.94;4966076;28;20117;-78
2024/01/15 01:23:14;;;;;;;0.00;0.00;;;;;;;3.23;66.04;99823.19;4955726;28;20484;-78
2024/01/15 01:25:40;;;;;;;0.00;0.00;;;;;;;3.24;65.15;99824.84;4954416;28;20030;-77
2024/01/15 01:28:05;;;;;;;0.00;0.00;;;;;;;3.18;65.46;99817.66;4948137;28;20057;-78
2024/01/15 01:30:31;;;;;;;0.10;0.10;;;;;;;3.17;66.05;99818.72;4969541;28;20088;-79
2024/01/15 01:32:56;;;;;;;0.00;0.00;;;;;;;3.08;66.04;99812.00;4960204;28;20023;-78
2024/01/15 01:35:22;;;;;;;0.00;0.00;;;;;;;3.07;66.31;99815.75;4951129;28;21033;-77
2024/01/15 01:37:50;;;;;;;0.00;0.00;;;;;;;3.07;66.51;99818.47;4947340;28;20092;-78
2024/01/15 01:40:15;;;;;;;0.00;0.00;;;;;;;2.86;65.97;99788.22;4958820;28;20030;-78
2024/01/15 01:42:41;;;;;;;0.00;0.00;;;;;;;3.03;67.18;99811.88;4953956;28;20034;-78
2024/01/15 01:45:07;;;;;;;0.00;0.00;;;;;;;2.97;67.12;99809.03;4943057;28;20374;-78
2024/01/15 01:47:32;;;;;;;0.00;0.00;;;;;;;2.97;66.77;99809.03;4968237;28;20026;-78
2024/01/15 01:49:57;;;;;;;0.00;0.00;;;;;;;2.91;66.94;99801.84;4944868;28;20586;-78
2024/01/15 01:52:23;;;;;;;0.00;0.00;;;;;;;2.95;68.17;99804.94;4976628;28;20106;-77
2024/01/15 01:54:49;;;;;;;0.00;0.00;;;;;;;2.96;67.85;99802.00;4966462;28;20126;-78
2024/01/15 01:57:16;;;;;;;0.00;0.00;;;;;;;2.92;67.74;99806.22;4953768;28;20049;-77
2024/01/15 01:59:41;;;;;;;0.10;0.10;;;;;;;2.93;68.43;99807.84;4959785;28;20034;-79
2024/01/15 02:02:07;;;;;;;0.00;0.00;;;;;;;2.89;68.01;99805.84;4934727;28;20027;-78
2024/01/15 02:04:32;;;;;;;0.00;0.00;;;;;;;2.90;68.52;99800.19;4946098;28;20122;-78
2024/01/15 02:06:59;;;;;;;0.10;0.10;;;;;;;2.86;68.31;99796.34;4976742;28;20031;-78
2024/01/15 02:09:25;;;;;;;0.00;0.00;;;;;;;2.89;69.19;99801.28;4961512;28;20030;-79
2024/01/15 02:11:50;;;;;;;0.00;0.00;;;;;;;2.84;69.60;99787.63;4962412;28;20117;-77
2024/01/15 02:14:16;;;;;;;0.00;0.00;;;;;;;2.82;69.48;99784.34;4949609;28;20022;-77
2024/01/15 02:16:41;;;;;;;0.03;0.03;;;;;;;2.91;69.91;99801.84;4962030;28;20063;-78
2024/01/15 02:19:07;;;;;;;0.00;0.00;;;;;;;2.91;69.41;99798.34;4968529;28;20088;-78
2024/01/15 02:21:33;;;;;;;0.00;0.00;;;;;;;2.86;70.14;99785.53;4940528;28;20076;-78
2024/01/15 02:23:58;;;;;;;0.00;0.00;;;;;;;2.91;70.61;99799.16;4954176;28;20449;-78
2024/01/15 02:26:24;;;;;;;0.00;0.00;;;;;;;2.91;69.90;99804.56;4966714;28;20026;-77
2024/01/15 02:28:50;;;;;;;0.00;0.00;;;;;;;2.91;70.30;99806.44;4988689;28;20037;-77
2024/01/15 02:31:16;;;;;;;0.00;0.00;;;;;;;2.89;70.42;99806.69;4987027;28;20110;-77
2024/01/15 02:33:43;;;;;;;0.00;0.00;;;;;;;2.92;70.01;99808.91;4953740;28;20058;-76
2024/01/15 02:36:09;;;;;;;0.00;0.00;;;;;;;2.87;70.37;99797.97;4983009;28;20436;-76
2024/01/15 02:38:34;;;;;;;0.00;0.00;;;;;;;2.89;70.67;99812.06;4952711;28;20030;-75
2024/01/15 02:41:00;;;;;;;0.00;0.00;;;;;;;2.96;71.27;99811.97;4948619;28;20026;-76
2024/01/15 02:43:25;;;;;;;0.00;0.00;;;;;;;2.97;71.24;99814.44;4962148;28;20026;-75
2024/01/15 02:45:51;;;;;;;0.00;0.00;;;;;;;3.02;71.98;99807.50;4951963;28;20023;-77
2024/01/15 02:48:16;;;;;;;0.00;0.00;;;;;;;3.08;71.77;99809.28;4951614;28;20038;-78
2024/01/15 02:50:42;;;;;;;0.00;0.00;;;;;;;3.02;71.84;99799.41;4954950;28;20038;-78
2024/01/15 02:53:08;;;;;;;0.00;0.00;;;;;;;2.99;72.44;99816.09;4946389;28;20373;-79
2024/01/15 02:55:34;;;;;;;0.00;0.00;;;;;;;2.96;72.37;99806.56;4965987;28;20031;-77
2024/01/15 02:57:59;;;;;;;0.00;0.00;;;;;;;2.92;71.85;99803.50;4953362;28;20040;-78
2024/01/15 03:00:26;;;;;;;0.00;0.00;;;;;;;2.94;73.16;99806.78;4960291;28;20030;-79
2024/01/15 03:02:51;;;;;;;0.10;0.10;;;;;;;2.91;72.82;99804.56;4966345;28;20081;-78
2024/01/15 03:05:17;;;;;;;0.00;0.00;;;;;;;2.85;72.80;99807.34;4935877;28;20026;-77
2024/01/15 03:07:43;;;;;;;0.00;0.00;;;;;;;2.84;73.06;99809.22;4948340;28;20042;-80
2024/01/15 03:10:09;;;;;;;0.00;0.00;;;;;;;2.81;73.18;99809.69;4958705;28;20027;-78
2024/01/15 03:12:34;;;;;;;0.00;0.00;;;;;;;2.76;73.28;99802.28;4963094;28;20018;-76
2024/01/15 03:14:59;;;;;;;0.10;0.10;;;;;;;2.66;73.23;99787.66;4936525;28;20030;-77
2024/01/15 03:17:25;;;;;;;0.00;0.00;;;;;;;2.71;72.62;99804.03;4968119;28;20034;-77
2024/01/15 03:19:50;;;;;;;0.00;0.00;;;;;;;2.60;73.02;99787.56;4949908;28;20038;-78
2024/01/15 03:22:16;;;;;;;0.00;0.00;;;;;;;2.62;73.27;99787.31;4962950;28;20027;-76
2024/01/15 03:24:42;;;;;;;0.00;0.00;;;;;;;2.60;73.75;99787.56;4986165;28;20029;-78
2024/01/15 03:27:07;;;;;;;0.10;0.10;;;;;;;2.66;73.72;99801.16;4945992;28;20015;-77
2024/01/15 03:29:33;;;;;;;0.00;0.00;;;;;;;2.68;73.83;99817.97;4941590;28;20037;-77
2024/01/15 03:31:58;;;;;;;0.00;0.00;;;;;;;2.64;73.75;99803.28;4957897;28;20030;-77
2024/01/15 03:34:24;;;;;;;0.00;0.00;;;;;;;2.62;74.25;99795.41;4968834;28;20042;-77
2024/01/15 03:36:49;;;;;;;0.08;0.08;;;;;;;2.62;74.65;99801.63;4956409;28;20018;-76
2024/01/15 03:39:15;;;;;;;0.10;0.10;;;;;;;2.58;74.86;99797.75;4955281;28;20061;-77
2024/01/15 03:41:43;;;;;;;0.00;0.00;;;;;;;2.60;74.74;99801.06;4949243;28;20042;-77
2024/01/15 03:44:08;;;;;;;0.00;0.00;;;;;;;2.60;74.47;99795.66;4971407;28;20116;-78
2024/01/15 03:46:33;;;;;;;0.00;0.00;;;;;;;2.57;75.06;99793.41;4959099;28;20035;-79
2024/01/15 03:48:59;;;;;;;0.00;0.00;;;;;;;2.55;74.79;99800.91;4952745;28;20060;-77
2024/01/15 03:51:24;;;;;;;0.10;0.10;;;;;;;2.56;74.83;99797.16;4965149;28;20027;-78
2024/01/15 03:53:49;;;;;;;0.10;0.10;;;;;;;2.59;74.48;99791.28;4943944;28;20169;-78
2024/01/15 03:56:15;;;;;;;0.00;0.00;;;;;;;2.62;74.42;99795.41;4965237;28;20518;-76
2024/01/15 03:58:40;;;;;;;0.00;0.00;;;;;;;2.67;74.91;99797.44;4959334;28;20488;-77
2024/01/15 04:01:09;;;;;;;0.00;0.00;;;;;;;2.55;74.66;99776.59;4969034;28;20054;-78
2024/01/15 04:03:35;;;;;;;0.00;0.00;;;;;;;2.67;74.36;99792.84;4936062;28;20121;-78
2024/01/15 04:06:00;;;;;;;0.00;0.00;;;;;;;2.66;75.01;99796.63;4957716;28;20066;-77
2024/01/15 04:08:26;;;;;;;0.00;0.00;;;;;;;2.65;74.97;99786.06;4943351;28;20053;-75
2024/01/15 04:10:51;;;;;;;0.00;0.00;;;;;;;2.62;75.26;99790.03;4942135;28;20511;-75
2024/01/15 04:13:16;;;;;;;0.00;0.00;;;;;;;2.61;74.67;99794.59;4985427;28;20028;-76
2024/01/15 04:15:42;;;;;;;0.00;0.00;;;;;;;2.54;75.23;99777.69;4974260;28;20046;-79
2024/01/15 04:18:07;;;;;;;0.00;0.00;;;;;;;2.51;75.26;99766.50;4964777;28;20490;-77
2024/01/15 04:20:33;;;;;;;0.00;0.00;;;;;;;2.57;75.58;99777.22;4967554;28;20027;-77
2024/01/15 04:22:58;;;;;;;0.00;0.00;;;;;;;2.56;75.27;99778.25;4956523;28;20058;-75
2024/01/15 04:25:23;;;;;;;0.00;0.00;;;;;;;2.54;75.31;99772.28;4958027;28;20484;-76
2024/01/15 04:27:49;;;;;;;0.00;0.00;;;;;;;2.54;75.76;99769.59;4974604;28;20002;-77
2024/01/15 04:30:14;;;;;;;0.00;0.00;;;;;;;2.54;75.42;99772.28;4973584;28;20030;-77
2024/01/15 04:32:40;;;;;;;0.00;0.00;;;;;;;2.40;76.10;99754.63;4967192;28;20069;-78
2024/01/15 04:35:06;;;;;;;0.00;0.00;;;;;;;2.50;76.04;99763.00;4971194;28;20034;-77
2024/01/15 04:37:31;;;;;;;0.10;0.10;;;;;;;2.54;76.06;99772.28;4967073;28;20045;-78
2024/01/15 04:39:57;;;;;;;0.00;0.00;;;;;;;2.52;76.17;99774.38;4956912;28;20404;-75
2024/01/15 04:42:22;;;;;;;0.00;0.00;;;;;;;2.43;75.86;99751.47;4955621;28;20031;-75
2024/01/15 04:44:48;;;;;;;0.00;0.00;;;;;;;2.49;76.27;99758.63;4988775;28;20029;-78
2024/01/15 04:47:14;;;;;;;0.10;0.10;;;;;;;2.57;75.80;99758.31;4976170;28;20054;-79
2024/01/15 04:49:39;;;;;;;0.00;0.00;;;;;;;2.58;76.02;99757.25;4961017;28;20492;-78
2024/01/15 04:52:05;;;;;;;0.10;0.10;;;;;;;2.56;76.25;99762.06;4969064;28;20066;-79
2024/01/15 04:54:30;;;;;;;0.00;0.00;;;;;;;2.54;76.26;99761.47;4979164;28;20031;-77
2024/01/15 04:56:56;;;;;;;0.00;0.00;;;;;;;2.39;75.88;99742.16;4989456;28;20037;-76
2024/01/15 04:59:21;;;;;;;0.00;0.00;;;;;;;2.48;75.78;99754.28;4990694;28;20041;-77
2024/01/15 05:01:47;;;;;;;0.00;0.00;;;;;;;2.44;76.60;99756.63;4963368;28;20019;-78
2024/01/15 05:04:12;;;;;;;0.00;0.00;;;;;;;2.45;76.37;99760.13;4964574;28;20155;-76
2024/01/15 05:06:38;;;;;;;0.00;0.00;;;;;;;2.31;76.46;99754.13;4959959;28;20377;-76
2024/01/15 05:09:04;;;;;;;0.00;0.00;;;;;;;2.27;76.00;99761.81;4944478;28;20421;-76
2024/01/15 05:11:29;;;;;;;0.00;0.00;;;;;;;2.07;76.42;99755.84;4964119;28;20078;-77
2024/01/15 05:13:55;;;;;;;0.00;0.00;;;;;;;1.88;76.92;99769.38;4966127;28;20042;-77
2024/01/15 05:16:20;;;;;;;0.00;0.00;;;;;;;1.71;77.14;99773.72;4958888;28;20027;-77
2024/01/15 05:18:46;;;;;;;0.00;0.00;;;;;;;1.50;77.83;99772.25;4953160;28;20521;-77
2024/01/15 05:21:12;;;;;;;0.00;0.00;;;;;;;1.30;78.83;99775.97;4973511;28;20038;-76
2024/01/15 05:23:38;;;;;;;0.03;0.03;;;;;;;1.11;79.36;99776.94;4972440;28;20011;-78
2024/01/15 05:26:03;;;;;;;0.00;0.00;;;;;;;1.01;80.45;99769.38;4978874;28;20011;-76
2024/01/15 05:28:29;;;;;;;0.00;0.00;;;;;;;0.71;80.78;99743.06;4964209;28;20023;-76
2024/01/15 05:30:55;;;;;;;0.00;0.00;;;;;;;0.72;80.80;99774.34;4956485;28;20693;-77
2024/01/15 05:33:22;;;;;;;0.10;0.10;;;;;;;0.56;81.16;99772.97;4968216;28;20117;-78
2024/01/15 05:35:47;;;;;;;0.00;0.00;;;;;;;0.37;81.96;99761.28;4972483;28;20034;-77
2024/01/15 05:38:13;;;;;;;0.10;0.10;;;;;;;0.33;81.98;99784.28;4962989;28;20085;-78
2024/01/15 05:40:38;;;;;;;0.00;0.00;;;;;;;0.16;82.20;99776.69;4964165;28;20106;-77
2024/01/15 05:43:03;;;;;;;0.00;0.00;;;;;;;0.09;83.16;99778.59;4959261;28;20065;-77
2024/01/15 05:45:30;;;;;;;0.10;0.10;;;;;;;0.06;83.55;99789.78;4972416;28;20015;-77
2024/01/15 05:47:55;;;;;;;0.00;0.00;;;;;;;0.01;83.76;99770.75;4973106;28;20007;-77
2024/01/15 05:50:22;;;;;;;0.00;0.00;;;;;;;0.02;84.26;99793.91;4967807;28;20085;-78
2024/01/15 05:52:47;;;;;;;0.10;0.10;;;;;;;-0.02;84.25;99795.38;4948393;28;20477;-78
2024/01/15 05:55:13;;;;;;;0.10;0.10;;;;;;;0.04;85.16;99804.47;4964208;28;20043;-80
2024/01/15 05:57:38;;;;;;;0.00;0.00;;;;;;;0.02;85.73;99796.63;4973780;28;20046;-78
2024/01/15 06:00:04;;;;;;;0.00;0.00;;;;;;;-0.03;85.12;99791.88;4953550;28;20026;-80
2024/01/15 06:02:30;;;;;;;0.10;0.10;;;;;;;0.02;85.24;99791.22;4962703;28;20026;-78
2024/01/15 06:04:55;;;;;;;0.00;0.00;;;;;;;0.02;85.14;99804.69;4957356;28;20396;-78
2024/01/15 06:07:22;;;;;;;0.10;0.10;;;;;;;-0.07;85.29;99797.91;4959640;28;20247;-78
2024/01/15 06:09:48;;;;;;;0.00;0.00;;;;;;;-0.06;85.66;99807.59;4946820;28;20036;-79
2024/01/15 06:12:13;;;;;;;0.10;0.10;;;;;;;-0.14;85.25;99807.84;4948214;28;20018;-77
2024/01/15 06:14:38;;;;;;;0.00;0.00;;;;;;;-0.20;85.98;99802.25;4963905;28;20033;-77
2024/01/15 06:17:04;;;;;;;0.00;0.00;;;;;;;-0.20;85.51;99817.56;4956244;28;20027;-77
2024/01/15 06:19:29;;;;;;;0.10;0.10;;;;;;;-0.25;86.46;99820.03;4985552;28;20050;-78
2024/01/15 06:21:55;;;;;;;0.10;0.10;;;;;;;-0.28;85.75;99815.91;4953714;28;20697;-79
2024/01/15 06:24:20;;;;;;;0.10;0.10;;;;;;;-0.34;85.70;99816.75;4941317;28;20022;-78
2024/01/15 06:26:48;;;;;;;0.03;0.03;;;;;;;-0.35;86.07;99815.13;4943704;28;20093;-79
2024/01/15 06:29:14;;;;;;;0.10;0.10;;;;;;;-0.40;86.32;99820.28;4963682;28;20109;-78
2024/01/15 06:31:39;;;;;;;0.00;0.00;;;;;;;-0.48;86.70;99820.47;4983200;28;20065;-79
2024/01/15 06:34:05;;;;;;;0.10;0.10;;;;;;;-0.56;85.92;99819.66;4962151;28;20027;-77
2024/01/15 06:36:30;;;;;;;0.00;0.00;;;;;;;-0.63;86.16;99812.66;4959310;28;20034;-77
2024/01/15 06:38:56;;;;;;;0.10;0.10;;;;;;;-0.62;86.60;99819.69;4961508;28;20039;-77
2024/01/15 06:41:21;;;;;;;0.10;0.10;;;;;;;-0.69;86.59;99819.66;4948557;28;20365;-77
2024/01/15 06:43:47;;;;;;;0.10;0.10;;;;;;;-0.80;85.97;99820.31;4969827;28;20030;-80
2024/01/15 06:46:19;;;;;;;0.10;0.10;;;;;;;-0.96;86.16;99813.50;4963362;28;20027;-79
2024/01/15 06:48:44;;;;;;;0.10;0.10;;;;;;;-0.86;87.06;99829.16;4965776;28;20117;-80
2024/01/15 06:51:09;;;;;;;0.10;0.10;;;;;;;-0.99;86.90;99806.66;4959247;28;20061;-81
2024/01/15 06:53:35;;;;;;;0.00;0.00;;;;;;;-0.89;86.51;99831.25;4935332;28;20035;-79
2024/01/15 06:56:01;;;;;;;0.10;0.10;;;;;;;-0.99;86.45;99824.59;4970178;28;20054;-79
2024/01/15 06:58:26;;;;;;;0.00;0.00;;;;;;;-1.04;87.10;99830.59;4967179;28;20098;-83
2024/01/15 07:01:03;;;;;;;0.10;0.10;;;;;;;-1.03;87.25;99834.13;4960479;28;20492;-83
2024/01/15 07:03:29;;;;;;;0.00;0.00;;;;;;;-1.16;87.53;99818.81;4984680;28;20171;-80
2024/01/15 07:05:54;;;;;;;0.00;0.00;;;;;;;-1.12;88.09;99836.16;4960648;28;20081;-82
2024/01/15 07:08:20;;;;;;;0.10;0.10;;;;;;;-1.16;87.69;99821.50;4946917;28;20037;-81
2024/01/15 07:10:45;;;;;;;0.00;0.00;;;;;;;-1.27;87.59;99815.72;4961157;28;20027;-81
2024/01/15 07:13:11;;;;;;;0.00;0.00;;;;;;;-1.19;87.06;99830.78;4936963;28;20118;-80
2024/01/15 07:15:39;;;;;;;0.10;0.10;;;;;;;-1.17;87.75;99834.06;4960265;28;20026;-79
2024/01/15 07:18:05;;;;;;;0.10;0.10;;;;;;;-1.17;88.16;99830.56;4959412;28;20113;-79
2024/01/15 07:20:30;;;;;;;0.10;0.10;;;;;;;-1.16;87.70;99834.91;4971230;28;20050;-81
2024/01/15 07:22:56;;;;;;;0.10;0.10;;;;;;;-1.25;88.12;99827.06;4947092;28;20046;-80
2024/01/15 07:25:22;;;;;;;0.10;0.10;;;;;;;-1.25;88.22;99815.50;4955534;28;20050;-80
2024/01/15 07:27:48;;;;;;;0.10;0.10;;;;;;;-1.26;88.21;99814.66;4963203;28;20461;-82
2024/01/15 07:30:15;;;;;;;0.10;0.10;;;;;;;-1.17;88.71;99822.53;4949295;28;20045;-82
2024/01/15 07:32:52;;;;;;;0.10;0.10;;;;;;;-1.10;88.52;99844.84;4945670;28;20042;-81
2024/01/15 07:35:20;;;;;;;0.10;0.10;;;;;;;-1.12;89.03;99841.53;4969510;28;20077;-81
2024/01/15 07:37:46;;;;;;;0.10;0.10;;;;;;;-1.23;88.96;99814.28;4956578;28;20055;-81
2024/01/15 07:40:12;;;;;;;0.10;0.10;;;;;;;-0.95;88.18;99848.19;4962913;28;20125;-82
2024/01/15 07:42:42;;;;;;;0.10;0.10;;;;;;;-1.12;89.05;99828.94;4990792;28;20015;-81
2024/01/15 07:45:08;;;;;;;0.00;0.00;;;;;;;-1.08;89.25;99859.72;4958404;28;20023;-80
2024/01/15 07:47:34;;;;;;;0.10;0.10;;;;;;;-1.24;89.02;99834.09;4984982;28;20065;-79
2024/01/15 07:49:59;;;;;;;0.10;0.10;;;;;;;-1.29;88.54;99827.66;4947590;28;20035;-81
2024/01/15 07:52:24;;;;;;;0.00;0.00;;;;;;;-1.17;89.41;99849.34;4950740;28;20117;-80
2024/01/15 07:54:50;;;;;;;0.10;0.10;;;;;;;-1.18;88.29;99847.69;4978969;28;20077;-79
2024/01/15 07:57:15;;;;;;;0.10;0.10;;;;;;;-1.21;89.27;99853.47;4972407;28;20030;-81
2024/01/15 07:59:43;;;;;;;0.00;0.00;;;;;;;-1.33;89.03;99842.50;4975648;28;20037;-78
2024/01/15 08:02:09;;;;;;;0.10;0.10;;;;;;;-1.28;88.67;99864.19;4987580;28;20033;-76
2024/01/15 08:04:37;;;;;;;0.00;0.00;;;;;;;-1.33;89.50;99867.50;4986212;28;20493;-80
2024/01/15 08:07:03;;;;;;;0.10;0.10;;;;;;;-1.41;89.16;99865.81;4973901;28;20815;-82
2024/01/15 08:09:29;;;;;;;0.10;0.10;;;;;;;-1.41;89.23;99864.97;4966999;28;20038;-77
2024/01/15 08:11:54;;;;;;;0.10;0.10;;;;;;;-1.16;89.26;99877.84;4957355;28;20505;-81
2024/01/15 08:14:20;;;;;;;0.10;0.10;;;;;;;-1.17;89.40;99874.31;4957607;28;20051;-80
2024/01/15 08:16:45;;;;;;;0.10;0.10;;;;;;;-1.14;89.35;99882.00;4954024;28;20523;-80
2024/01/15 08:19:11;;;;;;;0.10;0.10;;;;;;;-1.11;89.84;99888.78;4959273;28;20030;-80
2024/01/15 08:21:36;;;;;;;0.10;0.10;;;;;;;-1.09;90.09;99884.06;4975137;28;20042;-81
2024/01/15 08:24:02;;;;;;;0.00;0.00;;;;;;;-1.11;89.25;99886.09;4966450;28;20030;-81
2024/01/15 08:26:32;;;;;;;0.10;0.10;;;;;;;-1.14;89.84;99883.84;4983756;28;21456;-81
2024/01/15 08:29:00;;;;;;;0.10;0.10;;;;;;;-1.10;88.80;99890.44;4976508;28;20066;-81
2024/01/15 08:31:26;;;;;;;0.10;0.10;;;;;;;-1.10;89.76;99893.13;4985058;28;20673;-81
2024/01/15 08:33:51;;;;;;;0.00;0.00;;;;;;;-1.01;89.19;99897.28;4975401;28;20046;-81
2024/01/15 08:36:16;;;;;;;0.00;0.00;;;;;;;-0.91;88.82;99897.72;4966052;28;20030;-80
2024/01/15 08:38:43;;;;;;;0.00;0.00;;;;;;;-0.94;88.87;99881.19;4961141;28;20021;-79
2024/01/15 08:41:09;;;;;;;0.00;0.00;;;;;;;-0.87;88.42;99892.78;4959014;28;20732;-77
2024/01/15 08:43:35;;;;;;;0.10;0.10;;;;;;;-0.81;88.57;99907.25;4961112;28;20034;-78
2024/01/15 08:46:00;;;;;;;0.10;0.10;;;;;;;-0.79;88.86;99902.50;4955033;28;20481;-78
2024/01/15 08:48:27;;;;;;;0.10;0.10;;;;;;;-0.82;88.14;99884.09;4975695;28;20022;-78
2024/01/15 08:50:53;;;;;;;0.00;0.00;;;;;;;-0.82;88.56;99873.38;4960831;28;20054;-78
2024/01/15 08:53:18;;;;;;;0.00;0.00;;;;;;;-0.64;88.51;99897.78;4964967;28;20031;-78
2024/01/15 08:55:44;;;;;;;0.00;0.00;;;;;;;-0.59;89.16;99900.66;4961311;28;20031;-79
2024/01/15 08:58:10;;;;;;;0.10;0.10;;;;;;;-0.51;88.32;99905.00;4983848;28;20049;-79
2024/01/15 09:00:35;;;;;;;0.10;0.10;;;;;;;-0.38;88.59;99914.91;4973934;28;20121;-79
2024/01/15 09:03:02;;;;;;;0.10;0.10;;;;;;;-0.43;88.28;99903.97;4966434;28;20034;-79
2024/01/15 09:05:27;;;;;;;0.00;0.00;;;;;;;-0.45;88.41;99895.28;4973715;28;20018;-81
2024/01/15 09:07:54;;;;;;;0.00;0.00;;;;;;;-0.30;88.08;99914.72;4968021;28;20023;-80
2024/01/15 09:10:20;;;;;;;0.00;0.00;;;;;;;-0.26;88.12;99904.41;4955080;28;21774;-78
2024/01/15 09:12:49;;;;;;;0.10;0.10;;;;;;;-0.21;87.62;99899.22;4954144;28;20381;-81
2024/01/15 09:15:14;;;;;;;0.00;0.00;;;;;;;-0.04;88.12;99921.13;4965223;28;20042;-79
2024/01/15 09:17:40;;;;;;;0.00;0.00;;;;;;;0.05;87.63;99927.91;4954742;28;20033;-78
2024/01/15 09:20:13;;;;;;;0.00;0.00;;;;;;;0.09;86.86;99918.41;4974710;28;20045;-78
2024/01/15 09:22:41;;;;;;;0.10;0.10;;;;;;;0.03;86.71;99903.13;4967701;28;20370;-78
2024/01/15 09:25:08;;;;;;;0.00;0.00;;;;;;;0.20;86.42;99908.03;4967290;28;20062;-79
2024/01/15 09:27:34;;;;;;;0.10;0.10;;;;;;;0.37;85.70;99919.19;4957933;28;20392;-78
2024/01/15 09:29:59;;;;;;;0.00;0.00;;;;;;;0.50;86.03;99922.63;4961829;28;20105;-78
2024/01/15 09:32:25;;;;;;;0.00;0.00;;;;;;;0.59;84.45;99925.09;4957364;28;20015;-78
2024/01/15 09:34:50;;;;;;;0.10;0.10;;;;;;;0.94;84.69;99935.53;4973658;28;20109;-79
2024/01/15 09:37:18;;;;;;;0.00;0.00;;;;;;;3.08;86.36;99934.41;4957028;28;20393;-79
2024/01/15 09:39:44;;;;;;;0.00;0.00;;;;;;;7.02;71.85;99927.03;4970739;28;20030;-80
2024/01/15 09:42:18;;;;;;;0.00;0.00;;;;;;;10.47;57.24;99929.44;4951895;28;20042;-80
2024/01/15 09:44:45;;;;;;;0.00;0.00;;;;;;;13.47;47.58;99922.25;4991366;28;20114;-78
2024/01/15 09:47:12;;;;;;;0.00;0.00;;;;;;;15.26;42.14;99906.28;4955824;28;20035;-79
2024/01/15 09:49:38;;;;;;;0.00;0.00;;;;;;;16.45;38.77;99915.22;4972601;28;20545;-77
2024/01/15 09:52:04;;;;;;;0.00;0.00;;;;;;;17.25;36.04;99921.50;4980964;28;20111;-79
2024/01/15 09:54:30;;;;;;;0.00;0.00;;;;;;;18.09;34.28;99920.50;4955483;28;20030;-80
2024/01/15 09:57:03;;;;;;;0.00;0.00;;;;;;;19.18;33.76;99952.31;4973233;28;20027;-78
2024/01/15 09:59:31;;;;;;;0.00;0.00;;;;;;;20.85;32.52;99923.81;4971392;28;21306;-78
2024/01/15 10:02:18;;;;;;;0.00;0.00;;;;;;;21.79;30.67;99924.69;4969402;28;20023;-81
2024/01/15 10:04:44;;;;;;;0.00;0.00;;;;;;;22.60;28.34;99914.50;4959726;28;20044;-79
2024/01/15 10:07:14;;;;;;;0.00;0.00;;;;;;;23.66;28.30;99942.44;4962411;28;20034;-79
2024/01/15 10:09:46;;;;;;;0.00;0.00;;;;;;;24.27;26.48;99919.69;4947948;28;20039;-80
2024/01/15 10:12:30;;;;;;;0.00;0.00;;;;;;;24.25;24.08;99916.47;4971747;28;20022;-83
2024/01/15 10:14:58;;;;;;;0.00;0.00;;;;;;;23.92;23.80;99929.00;4963158;28;20042;-78
2024/01/15 10:17:31;;;;;;;0.00;0.00;;;;;;;24.51;24.89;99949.28;4947200;28;20034;-80
2024/01/15 10:19:57;;;;;;;0.00;0.00;;;;;;;25.20;23.48;99949.22;4974487;28;20440;-80
2024/01/15 10:22:23;;;;;;;0.00;0.00;;;;;;;25.29;22.51;99953.72;4967938;28;20078;-80
2024/01/15 10:24:48;;;;;;;0.03;0.03;;;;;;;25.77;23.28;99959.59;4952741;28;20034;-80
2024/01/15 10:27:14;;;;;;;0.00;0.00;;;;;;;26.22;21.44;99957.72;4966464;28;20121;-80
2024/01/15 10:29:41;;;;;;;0.00;0.00;;;;;;;26.09;21.67;99948.81;4967380;28;20007;-80
2024/01/15 10:32:17;;;;;;;0.00;0.00;;;;;;;26.56;20.92;99949.28;4959322;28;20042;-81
2024/01/15 10:34:45;;;;;;;0.00;0.00;;;;;;;26.71;21.19;99955.00;4977803;28;20489;-82
2024/01/15 10:37:22;;;;;;;0.00;0.00;;;;;;;26.41;21.32;99969.94;4961533;28;20030;-81
2024/01/15 10:39:47;;;;;;;0.00;0.00;;;;;;;26.70;20.54;99961.84;4962453;28;20142;-83
2024/01/15 10:42:13;;;;;;;0.00;0.00;;;;;;;27.20;20.19;99953.78;4943716;28;20062;-81
2024/01/15 10:44:39;;;;;;;0.00;0.00;;;;;;;27.15;20.21;99940.94;4970280;28;20126;-82
2024/01/15 10:47:04;;;;;;;0.00;0.00;;;;;;;27.91;20.88;99961.00;4969602;28;20010;-81
2024/01/15 10:49:30;;;;;;;0.00;0.00;;;;;;;28.65;20.51;99970.03;4962802;28;20453;-82
2024/01/15 10:52:09;;;;;;;0.00;0.00;;;;;;;29.22;18.88;99931.84;4968674;28;20054;-82
2024/01/15 10:54:37;;;;;;;0.00;0.00;;;;;;;29.39;19.40;99980.84;4971929;28;20139;-82
2024/01/15 10:57:05;;;;;;;0.00;0.00;;;;;;;29.82;18.91;99952.59;4971181;28;20370;-81
2024/01/15 10:59:32;;;;;;;0.00;0.00;;;;;;;30.75;18.30;99961.69;4950785;28;20026;-83
2024/01/15 11:01:59;;;;;;;0.00;0.00;;;;;;;31.47;17.97;99967.47;4963397;28;20121;-79
2024/01/15 11:04:28;;;;;;;0.00;0.00;;;;;;;31.47;16.06;99978.75;4946711;28;20031;-77
2024/01/15 11:06:55;;;;;;;0.00;0.00;;;;;;;30.97;16.84;99984.88;4961397;28;20034;-76
2024/01/15 11:09:20;;;;;;;0.00;0.00;;;;;;;31.41;16.74;99980.44;4967412;28;20031;-76
2024/01/15 11:12:07;;;;;;;0.00;0.00;;;;;;;31.46;17.11;99963.03;4941080;28;20509;-78
2024/01/15 11:14:39;;;;;;;0.00;0.00;;;;;;;31.55;15.80;99984.34;4982766;28;20022;-78
2024/01/15 11:17:07;;;;;;;0.00;0.00;;;;;;;31.53;15.88;99989.59;4959707;28;20023;-78
2024/01/15 11:19:39;;;;;;;0.00;0.00;;;;;;;31.33;15.88;99984.56;4971491;28;20029;-80
2024/01/15 11:22:09;;;;;;;0.00;0.00;;;;;;;30.94;15.21;99974.41;4955362;28;20030;-79
2024/01/15 11:24:39;;;;;;;0.00;0.00;;;;;;;30.97;15.76;99973.56;4959555;28;20029;-78
2024/01/15 11:27:07;;;;;;;0.00;0.00;;;;;;;31.72;16.05;99966.41;4969919;28;20038;-80
2024/01/15 11:29:35;;;;;;;0.00;0.00;;;;;;;32.63;15.64;99983.72;4965417;28;20342;-79
2024/01/15 11:32:04;;;;;;;0.00;0.00;;;;;;;33.48;15.35;99974.19;4976159;28;20520;-83
2024/01/15 11:35:06;;;;;;;0.00;0.00;;;;;;;31.89;15.17;99986.38;4963251;28;20038;-80